Time;durP1;ratioP1;P1;durP2;ratioP2;P2;SDS_P1;SDS_P2;PMS_P1;PMS_P2;Temp;Humidity;BMP_temperature;BMP_pressure;BME280_temperature;BME280_humidity;BME280_pressure;Samples;Min_cycle;Max_cycle;Signal;HPM_P1;HPM_P2
2021/10/03 00:00:04;;;;;;;0.00;0.00;;;11.30;70.50;;;;;;5035771;28;20355;-80
2021/10/03 00:02:31;;;;;;;0.00;0.00;;;11.40;70.70;;;;;;5053486;28;20033;-79
2021/10/03 00:05:00;;;;;;;0.00;0.00;;;11.30;70.70;;;;;;5053723;28;20354;-80
2021/10/03 00:07:29;;;;;;;0.00;0.00;;;11.30;70.80;;;;;;5055012;28;20104;-80
2021/10/03 00:09:54;;;;;;;0.00;0.00;;;11.30;70.90;;;;;;5055286;28;20044;-78
2021/10/03 00:12:22;;;;;;;0.00;0.00;;;11.30;70.90;;;;;;5038386;28;20427;-79
2021/10/03 00:14:49;;;;;;;0.00;0.00;;;11.30;71.00;;;;;;5054100;28;20063;-81
2021/10/03 00:17:15;;;;;;;0.00;0.00;;;11.30;71.00;;;;;;5038228;28;20064;-80
2021/10/03 00:19:41;;;;;;;0.00;0.00;;;11.40;71.10;;;;;;5041356;28;20025;-79
2021/10/03 00:22:07;;;;;;;0.00;0.00;;;11.30;71.00;;;;;;5059064;28;20032;-78
2021/10/03 00:24:33;;;;;;;0.00;0.00;;;11.30;71.10;;;;;;5039047;28;20033;-79
2021/10/03 00:27:00;;;;;;;0.00;0.00;;;11.30;71.10;;;;;;5033574;28;20081;-79
2021/10/03 00:36:09;;;;;;;0.00;0.00;;;11.30;71.30;;;;;;5033379;28;20037;-80
2021/10/03 00:38:35;;;;;;;0.00;0.00;;;11.30;71.20;;;;;;5033963;28;20474;-80
2021/10/03 00:41:01;;;;;;;0.00;0.00;;;11.20;71.40;;;;;;5051855;28;20032;-79
2021/10/03 00:43:28;;;;;;;0.00;0.00;;;11.20;71.60;;;;;;5052393;28;20083;-79
2021/10/03 00:45:53;;;;;;;0.00;0.00;;;11.20;71.80;;;;;;5052045;28;20116;-79
2021/10/03 00:48:19;;;;;;;0.00;0.00;;;11.20;72.00;;;;;;5053293;28;20098;-80
2021/10/03 00:50:47;;;;;;;0.00;0.00;;;11.20;72.10;;;;;;5053511;28;20039;-79
2021/10/03 00:53:14;;;;;;;0.00;0.00;;;11.20;72.30;;;;;;5052900;28;20075;-79
2021/10/03 00:55:41;;;;;;;0.00;0.00;;;11.20;72.40;;;;;;5053080;28;20432;-79
2021/10/03 00:58:08;;;;;;;0.00;0.00;;;11.20;72.50;;;;;;5053646;28;20047;-80
2021/10/03 01:00:36;;;;;;;0.00;0.00;;;11.20;72.60;;;;;;5053499;28;20022;-80
2021/10/03 01:03:04;;;;;;;0.00;0.00;;;11.20;72.70;;;;;;5052678;28;20021;-79
2021/10/03 01:05:31;;;;;;;0.00;0.00;;;11.20;72.90;;;;;;5054426;28;20021;-79
2021/10/03 01:07:57;;;;;;;0.00;0.00;;;11.20;73.00;;;;;;5055405;28;20033;-79
2021/10/03 01:10:25;;;;;;;0.00;0.00;;;11.20;73.00;;;;;;5046578;28;20104;-79
2021/10/03 01:13:02;;;;;;;0.00;0.00;;;11.20;73.10;;;;;;5044171;28;20024;-80
2021/10/03 01:15:28;;;;;;;0.00;0.00;;;11.20;73.20;;;;;;5051033;28;20112;-79
2021/10/03 01:17:54;;;;;;;0.00;0.00;;;11.20;73.10;;;;;;5037558;28;20116;-81
2021/10/03 01:20:22;;;;;;;0.00;0.00;;;11.20;73.20;;;;;;5037349;28;20057;-79
2021/10/03 01:22:49;;;;;;;0.00;0.00;;;11.20;73.30;;;;;;5035740;28;20097;-80
2021/10/03 01:25:15;;;;;;;0.00;0.00;;;11.20;73.30;;;;;;5040232;28;20030;-80
2021/10/03 01:27:41;;;;;;;0.00;0.00;;;11.20;73.50;;;;;;5039466;28;20029;-79
2021/10/03 01:30:14;;;;;;;0.00;0.00;;;11.10;73.50;;;;;;5056653;28;20537;-80
2021/10/03 01:32:40;;;;;;;0.00;0.00;;;11.10;73.70;;;;;;5056429;28;20111;-81
2021/10/03 01:35:08;;;;;;;0.00;0.00;;;11.10;73.70;;;;;;5056632;28;20388;-79
2021/10/03 01:37:35;;;;;;;0.00;0.00;;;11.10;73.80;;;;;;5038880;28;20111;-80
2021/10/03 01:40:07;;;;;;;0.00;0.00;;;11.10;73.90;;;;;;5056373;28;20450;-80
2021/10/03 01:42:33;;;;;;;0.00;0.00;;;11.10;74.00;;;;;;5067571;28;20028;-80
2021/10/03 01:44:59;;;;;;;0.00;0.00;;;11.10;73.90;;;;;;5076308;28;20024;-80
2021/10/03 01:47:25;;;;;;;0.00;0.00;;;11.00;73.90;;;;;;5058433;28;20411;-80
2021/10/03 01:49:50;;;;;;;0.00;0.00;;;11.00;73.90;;;;;;5058365;28;20078;-80
2021/10/03 01:52:17;;;;;;;0.00;0.00;;;11.00;73.90;;;;;;5075843;28;20020;-79
2021/10/03 01:54:43;;;;;;;0.00;0.00;;;11.00;73.90;;;;;;5058072;28;20040;-80
2021/10/03 01:57:09;;;;;;;0.00;0.00;;;11.00;73.90;;;;;;5076195;28;20033;-80
2021/10/03 01:59:35;;;;;;;0.00;0.00;;;11.00;73.90;;;;;;5075891;28;20483;-80
2021/10/03 02:02:01;;;;;;;0.00;0.00;;;11.00;73.80;;;;;;5057985;28;20029;-80
2021/10/03 02:04:27;;;;;;;0.00;0.00;;;11.00;73.90;;;;;;5076221;28;20033;-80
2021/10/03 02:06:55;;;;;;;0.00;0.00;;;10.90;73.80;;;;;;5076165;28;20066;-80
2021/10/03 02:09:24;;;;;;;0.00;0.00;;;10.90;73.90;;;;;;5058086;28;20357;-80
2021/10/03 02:11:52;;;;;;;0.00;0.00;;;10.90;73.90;;;;;;5075950;28;20377;-79
2021/10/03 02:14:19;;;;;;;0.00;0.00;;;10.90;74.10;;;;;;5075589;28;20051;-80
2021/10/03 02:16:46;;;;;;;0.00;0.00;;;10.90;74.10;;;;;;5075592;28;20066;-80
2021/10/03 02:19:12;;;;;;;0.00;0.00;;;10.80;74.20;;;;;;5075339;28;20491;-80
2021/10/03 02:21:39;;;;;;;0.00;0.00;;;10.80;74.30;;;;;;5041324;28;20055;-80
2021/10/03 02:24:06;;;;;;;0.00;0.00;;;10.80;74.40;;;;;;5076200;28;20383;-80
2021/10/03 02:26:33;;;;;;;0.00;0.00;;;10.80;74.50;;;;;;5053888;28;20417;-80
2021/10/03 02:28:59;;;;;;;0.00;0.00;;;10.80;74.60;;;;;;5055413;28;20036;-79
2021/10/03 02:31:25;;;;;;;0.00;0.00;;;10.80;74.70;;;;;;5055454;28;20029;-80
2021/10/03 02:33:51;;;;;;;0.00;0.00;;;10.80;74.70;;;;;;5055119;28;20033;-80
2021/10/03 02:36:21;;;;;;;0.00;0.00;;;10.80;74.80;;;;;;5055313;28;20040;-80
2021/10/03 02:38:48;;;;;;;0.00;0.00;;;10.80;74.90;;;;;;5054103;28;20021;-81
2021/10/03 02:41:15;;;;;;;0.00;0.00;;;10.80;74.90;;;;;;5055395;28;20057;-80
2021/10/03 02:43:44;;;;;;;0.00;0.00;;;10.70;74.90;;;;;;5054888;28;20087;-80
2021/10/03 02:46:10;;;;;;;0.00;0.00;;;10.80;75.60;;;;;;5053913;28;20025;-80
2021/10/03 02:48:37;;;;;;;0.00;0.00;;;10.70;75.00;;;;;;5052253;28;20082;-80
2021/10/03 02:51:03;;;;;;;0.00;0.00;;;10.70;75.10;;;;;;5055296;28;20029;-80
2021/10/03 02:53:29;;;;;;;0.00;0.00;;;10.70;75.20;;;;;;5053766;28;20116;-80
2021/10/03 02:55:55;;;;;;;0.00;0.00;;;10.70;75.30;;;;;;5054842;28;20033;-80
2021/10/03 02:58:21;;;;;;;0.00;0.00;;;10.70;75.40;;;;;;5055385;28;20532;-79
2021/10/03 03:00:53;;;;;;;0.00;0.00;;;10.60;75.40;;;;;;5055645;28;20032;-79
2021/10/03 03:03:19;;;;;;;0.00;0.00;;;10.60;75.40;;;;;;5060282;28;20033;-79
2021/10/03 03:05:45;;;;;;;0.00;0.00;;;10.60;75.40;;;;;;5060520;28;20028;-80
2021/10/03 03:08:10;;;;;;;0.00;0.00;;;10.60;75.40;;;;;;5057753;28;20449;-80
2021/10/03 03:10:36;;;;;;;0.00;0.00;;;10.60;75.40;;;;;;5057681;28;20025;-80
2021/10/03 03:13:03;;;;;;;0.00;0.00;;;10.60;75.50;;;;;;5057003;28;20025;-80
2021/10/03 03:15:29;;;;;;;0.00;0.00;;;10.50;75.40;;;;;;5056952;28;20036;-79
2021/10/03 03:17:55;;;;;;;0.00;0.00;;;10.50;75.50;;;;;;5056873;28;20029;-80
2021/10/03 03:20:21;;;;;;;0.00;0.00;;;10.50;75.40;;;;;;5055017;28;20025;-79
2021/10/03 03:22:46;;;;;;;0.00;0.00;;;10.50;75.40;;;;;;5054696;28;20039;-80
2021/10/03 03:25:14;;;;;;;0.00;0.00;;;10.50;75.40;;;;;;5056310;28;20380;-80
2021/10/03 03:27:42;;;;;;;0.00;0.00;;;10.50;75.40;;;;;;5056651;28;20031;-80
2021/10/03 03:30:11;;;;;;;0.00;0.00;;;10.50;75.50;;;;;;5073629;28;20032;-80
2021/10/03 03:32:37;;;;;;;0.00;0.00;;;10.40;75.50;;;;;;5074146;28;20385;-80
2021/10/03 03:35:04;;;;;;;0.00;0.00;;;10.40;75.50;;;;;;5074395;28;20137;-79
2021/10/03 03:37:30;;;;;;;0.00;0.00;;;10.40;75.50;;;;;;5074687;28;20024;-79
2021/10/03 03:39:56;;;;;;;0.00;0.00;;;10.30;75.60;;;;;;5074309;28;20071;-79
2021/10/03 03:42:21;;;;;;;0.00;0.00;;;10.30;75.70;;;;;;5073904;28;20020;-81
2021/10/03 03:44:47;;;;;;;0.00;0.00;;;10.30;75.70;;;;;;5074185;28;20078;-81
2021/10/03 03:47:13;;;;;;;0.00;0.00;;;10.30;75.80;;;;;;5056249;28;20026;-80
2021/10/03 03:49:39;;;;;;;0.00;0.00;;;10.30;75.90;;;;;;5073989;28;20479;-79
2021/10/03 03:52:05;;;;;;;0.00;0.00;;;10.30;75.90;;;;;;5056107;28;20047;-79
2021/10/03 03:54:31;;;;;;;0.00;0.00;;;10.30;75.90;;;;;;5074439;28;20111;-80
2021/10/03 03:56:57;;;;;;;0.00;0.00;;;10.30;75.90;;;;;;5073746;28;20079;-79
2021/10/03 03:59:25;;;;;;;0.00;0.00;;;10.30;75.90;;;;;;5074007;28;20112;-80
2021/10/03 04:01:52;;;;;;;0.00;0.00;;;10.30;75.90;;;;;;5055988;28;20064;-78
2021/10/03 04:04:18;;;;;;;0.00;0.00;;;10.30;75.90;;;;;;5073796;28;20028;-80
2021/10/03 04:06:43;;;;;;;0.00;0.00;;;10.30;75.90;;;;;;5073649;28;20025;-79
2021/10/03 04:09:09;;;;;;;0.00;0.00;;;10.30;76.00;;;;;;5073614;28;20035;-80
2021/10/03 04:11:35;;;;;;;0.00;0.00;;;10.30;76.00;;;;;;5073576;28;20033;-80
2021/10/03 04:14:01;;;;;;;0.00;0.00;;;10.30;76.00;;;;;;5073738;28;20028;-81
2021/10/03 04:16:26;;;;;;;0.00;0.00;;;10.30;76.00;;;;;;5073883;28;20024;-79
2021/10/03 04:18:52;;;;;;;0.00;0.00;;;10.30;76.00;;;;;;5073836;28;20032;-80
2021/10/03 04:21:18;;;;;;;0.00;0.00;;;10.30;76.00;;;;;;5073673;28;20444;-80
2021/10/03 04:23:44;;;;;;;0.00;0.00;;;10.40;76.00;;;;;;5073634;28;20103;-80
2021/10/03 04:26:10;;;;;;;0.00;0.00;;;10.40;76.00;;;;;;5073705;28;20048;-81
2021/10/03 04:28:35;;;;;;;0.00;0.00;;;10.40;76.00;;;;;;5056149;28;20036;-80
2021/10/03 04:31:01;;;;;;;0.00;0.00;;;10.40;76.00;;;;;;5073736;28;20028;-80
2021/10/03 04:33:27;;;;;;;0.00;0.00;;;10.50;76.00;;;;;;5073525;28;20067;-80
2021/10/03 04:35:53;;;;;;;0.08;0.00;;;10.50;76.00;;;;;;5055353;28;20037;-79
2021/10/03 04:38:18;;;;;;;0.00;0.00;;;10.60;76.00;;;;;;5055620;28;20123;-79
2021/10/03 04:40:44;;;;;;;0.00;0.00;;;10.60;75.90;;;;;;5073369;28;20029;-79
2021/10/03 04:43:10;;;;;;;0.00;0.00;;;10.60;75.90;;;;;;5077347;28;20082;-80
2021/10/03 04:45:36;;;;;;;0.00;0.00;;;10.70;75.80;;;;;;5059589;28;20054;-81
2021/10/03 04:48:02;;;;;;;0.00;0.00;;;10.70;75.80;;;;;;5059525;28;20432;-80
2021/10/03 04:50:29;;;;;;;0.00;0.00;;;10.80;75.90;;;;;;5039262;28;20449;-80
2021/10/03 04:52:55;;;;;;;0.00;0.00;;;10.80;75.80;;;;;;5057193;28;20076;-81
2021/10/03 04:55:20;;;;;;;0.00;0.00;;;10.90;75.70;;;;;;5022871;28;20028;-80
2021/10/03 04:57:47;;;;;;;0.00;0.00;;;11.00;75.50;;;;;;5057265;28;20094;-80
2021/10/03 05:00:13;;;;;;;0.00;0.00;;;11.00;75.40;;;;;;5056925;28;20044;-80
2021/10/03 05:02:39;;;;;;;0.00;0.00;;;11.10;75.20;;;;;;5056963;28;20025;-80
2021/10/03 05:05:05;;;;;;;0.00;0.00;;;11.10;75.10;;;;;;5063291;28;20491;-82
2021/10/03 05:07:31;;;;;;;0.00;0.00;;;11.20;74.90;;;;;;5077287;28;20025;-81
2021/10/03 05:09:57;;;;;;;0.00;0.00;;;11.30;75.30;;;;;;5059421;28;20100;-83
2021/10/03 05:12:23;;;;;;;0.00;0.00;;;11.30;74.50;;;;;;5076879;28;20032;-81
2021/10/03 05:14:48;;;;;;;0.00;0.00;;;11.40;74.30;;;;;;5077657;28;20032;-81
2021/10/03 05:17:14;;;;;;;0.00;0.00;;;11.40;74.00;;;;;;5076981;28;20426;-79
2021/10/03 05:19:40;;;;;;;0.00;0.00;;;11.50;73.80;;;;;;5076880;28;20031;-81
2021/10/03 05:22:05;;;;;;;0.00;0.00;;;11.50;73.60;;;;;;5076735;28;20024;-80
2021/10/03 05:24:32;;;;;;;0.00;0.00;;;11.60;73.50;;;;;;5076564;28;20456;-80
2021/10/03 05:26:58;;;;;;;0.00;0.00;;;11.70;73.30;;;;;;5077273;28;20048;-79
2021/10/03 05:29:24;;;;;;;0.00;0.00;;;11.70;73.10;;;;;;5076451;28;20056;-80
2021/10/03 05:31:50;;;;;;;0.00;0.00;;;11.80;72.90;;;;;;5076634;28;20154;-80
2021/10/03 05:34:15;;;;;;;0.00;0.00;;;11.80;72.70;;;;;;5076490;28;20066;-81
2021/10/03 05:36:41;;;;;;;0.00;0.00;;;11.90;72.60;;;;;;5076513;28;20028;-80
2021/10/03 05:39:07;;;;;;;0.00;0.00;;;11.90;72.40;;;;;;5058330;28;20029;-81
2021/10/03 05:41:33;;;;;;;0.00;0.00;;;11.90;72.10;;;;;;5075570;28;20040;-79
2021/10/03 05:43:59;;;;;;;0.00;0.00;;;12.00;72.00;;;;;;5076070;28;20153;-80
2021/10/03 05:46:25;;;;;;;0.00;0.00;;;12.00;71.90;;;;;;5076160;28;20055;-80
2021/10/03 05:48:51;;;;;;;0.00;0.00;;;12.10;71.80;;;;;;5076138;28;20100;-80
2021/10/03 05:51:17;;;;;;;0.00;0.00;;;12.10;71.60;;;;;;5076220;28;20027;-79
2021/10/03 05:53:43;;;;;;;0.00;0.00;;;12.20;71.50;;;;;;5075675;28;20025;-79
2021/10/03 05:56:09;;;;;;;0.00;0.00;;;12.30;71.40;;;;;;5058264;28;20024;-81
2021/10/03 05:58:34;;;;;;;0.00;0.00;;;12.30;71.20;;;;;;5076198;28;20067;-80
2021/10/03 06:01:00;;;;;;;0.00;0.00;;;12.40;71.10;;;;;;5077261;28;20032;-80
2021/10/03 06:03:26;;;;;;;0.00;0.00;;;12.40;70.90;;;;;;5077035;28;20036;-80
2021/10/03 06:05:52;;;;;;;0.00;0.00;;;12.50;70.70;;;;;;5058716;28;20461;-80
2021/10/03 06:08:18;;;;;;;0.00;0.00;;;12.70;70.60;;;;;;5077146;28;20035;-80
2021/10/03 06:10:44;;;;;;;0.00;0.00;;;12.70;70.20;;;;;;5077085;28;20031;-80
2021/10/03 06:13:10;;;;;;;0.00;0.00;;;12.80;70.00;;;;;;5077287;28;20029;-81
2021/10/03 06:15:39;;;;;;;0.00;0.00;;;12.80;69.80;;;;;;5077594;28;20085;-80
2021/10/03 06:18:06;;;;;;;0.00;0.00;;;12.90;69.50;;;;;;5076565;28;20024;-80
2021/10/03 06:20:32;;;;;;;0.00;0.00;;;13.00;69.40;;;;;;5076084;28;20170;-80
2021/10/03 06:22:57;;;;;;;0.00;0.00;;;13.10;69.20;;;;;;5075735;28;20033;-80
2021/10/03 06:25:23;;;;;;;0.00;0.00;;;13.10;69.00;;;;;;5075565;28;20052;-82
2021/10/03 06:27:50;;;;;;;0.00;0.00;;;13.20;68.80;;;;;;5047557;28;20058;-84
2021/10/03 06:30:16;;;;;;;0.00;0.00;;;13.20;68.70;;;;;;5043376;28;20100;-80
2021/10/03 06:32:43;;;;;;;0.00;0.00;;;13.30;68.40;;;;;;5046639;28;20385;-82
2021/10/03 06:35:10;;;;;;;0.00;0.00;;;13.40;68.20;;;;;;5043137;28;20071;-83
2021/10/03 06:37:36;;;;;;;0.00;0.00;;;13.50;68.00;;;;;;5042556;28;20083;-81
2021/10/03 06:40:03;;;;;;;0.00;0.00;;;13.50;67.70;;;;;;5025690;28;20480;-81
2021/10/03 06:42:29;;;;;;;0.00;0.00;;;13.60;67.50;;;;;;5040754;28;20025;-84
2021/10/03 06:44:55;;;;;;;0.00;0.00;;;13.70;67.40;;;;;;5043011;28;20369;-81
2021/10/03 06:47:21;;;;;;;0.00;0.00;;;13.70;67.20;;;;;;5045712;28;20447;-81
2021/10/03 06:49:46;;;;;;;0.00;0.00;;;13.80;66.90;;;;;;5041907;28;20033;-80
2021/10/03 06:52:13;;;;;;;0.00;0.00;;;13.80;66.70;;;;;;5047043;28;20027;-80
2021/10/03 06:54:39;;;;;;;0.00;0.00;;;13.90;66.60;;;;;;5054673;28;20043;-80
2021/10/03 06:57:05;;;;;;;0.00;0.00;;;14.10;66.50;;;;;;5044213;28;20033;-82
2021/10/03 06:59:31;;;;;;;0.00;0.00;;;14.10;66.20;;;;;;5037111;28;20029;-81
2021/10/03 07:02:03;;;;;;;0.00;0.00;;;14.20;65.80;;;;;;5028689;28;20017;-82
2021/10/03 07:04:31;;;;;;;0.00;0.00;;;14.30;65.50;;;;;;5045022;28;20025;-81
2021/10/03 07:06:58;;;;;;;0.00;0.00;;;14.40;65.30;;;;;;5028859;28;20021;-82
2021/10/03 07:09:24;;;;;;;0.00;0.00;;;14.60;64.90;;;;;;5044837;28;20095;-83
2021/10/03 07:11:50;;;;;;;0.00;0.00;;;14.70;64.90;;;;;;5025317;28;20018;-82
2021/10/03 07:14:16;;;;;;;0.00;0.00;;;14.80;64.40;;;;;;5048915;28;20110;-81
2021/10/03 07:16:42;;;;;;;0.00;0.00;;;14.90;64.10;;;;;;5049457;28;20025;-81
2021/10/03 07:19:08;;;;;;;0.00;0.00;;;15.00;63.80;;;;;;5048997;28;20036;-82
2021/10/03 07:21:34;;;;;;;0.00;0.00;;;15.20;63.60;;;;;;5047644;28;20040;-80
2021/10/03 07:24:00;;;;;;;0.00;0.00;;;15.30;63.30;;;;;;5045297;28;20464;-80
2021/10/03 07:26:25;;;;;;;0.00;0.00;;;15.50;62.90;;;;;;5044706;28;20093;-81
2021/10/03 07:28:52;;;;;;;0.03;0.03;;;15.70;62.60;;;;;;5024342;28;20021;-81
2021/10/03 07:31:19;;;;;;;0.00;0.00;;;15.90;62.10;;;;;;5032346;28;20033;-83
2021/10/03 07:33:45;;;;;;;0.00;0.00;;;16.00;61.60;;;;;;5044398;28;20036;-81
2021/10/03 07:36:11;;;;;;;0.00;0.00;;;16.20;61.20;;;;;;5043273;28;20037;-82
2021/10/03 07:38:37;;;;;;;0.00;0.00;;;16.40;60.80;;;;;;5045481;28;20017;-81
2021/10/03 07:41:03;;;;;;;0.00;0.00;;;16.60;60.20;;;;;;5041507;28;20017;-82
2021/10/03 07:43:28;;;;;;;0.00;0.00;;;16.90;59.70;;;;;;5025695;28;20055;-82
2021/10/03 07:45:54;;;;;;;0.00;0.00;;;17.10;59.20;;;;;;5042849;28;20018;-79
2021/10/03 07:48:21;;;;;;;0.00;0.00;;;17.20;58.70;;;;;;5045052;28;20538;-81
2021/10/03 07:50:47;;;;;;;0.00;0.00;;;17.40;58.10;;;;;;5042014;28;20108;-84
2021/10/03 07:53:13;;;;;;;0.00;0.00;;;17.70;57.70;;;;;;5033405;28;20492;-81
2021/10/03 07:55:38;;;;;;;0.00;0.00;;;17.90;57.10;;;;;;5027150;28;20033;-82
2021/10/03 07:58:07;;;;;;;0.00;0.00;;;18.20;56.50;;;;;;5044771;28;20025;-81
2021/10/03 08:00:33;;;;;;;0.00;0.00;;;18.50;55.90;;;;;;5026073;28;20524;-82
2021/10/03 08:02:59;;;;;;;0.00;0.00;;;18.90;55.50;;;;;;5044612;28;20047;-83
2021/10/03 08:05:25;;;;;;;0.00;0.00;;;19.40;54.70;;;;;;5044185;28;20024;-80
2021/10/03 08:07:51;;;;;;;0.00;0.00;;;20.00;53.70;;;;;;5040403;28;20374;-82
2021/10/03 08:10:17;;;;;;;0.00;0.00;;;20.70;52.60;;;;;;5024639;28;20079;-83
2021/10/03 08:12:43;;;;;;;0.00;0.00;;;21.60;51.30;;;;;;5024211;28;20033;-82
2021/10/03 08:15:09;;;;;;;0.00;0.00;;;22.50;49.80;;;;;;5041927;28;20036;-82
2021/10/03 08:17:35;;;;;;;0.00;0.00;;;23.40;48.20;;;;;;5043759;28;20036;-80
2021/10/03 08:20:01;;;;;;;0.00;0.00;;;24.30;46.70;;;;;;5047967;28;20047;-80
2021/10/03 08:22:27;;;;;;;0.00;0.00;;;25.10;45.20;;;;;;5053131;28;20171;-80
2021/10/03 08:24:53;;;;;;;0.00;0.00;;;25.80;44.10;;;;;;5053168;28;20029;-81
2021/10/03 08:27:20;;;;;;;0.00;0.00;;;26.40;43.00;;;;;;5045605;28;20050;-81
2021/10/03 08:29:46;;;;;;;0.00;0.00;;;27.00;42.20;;;;;;5033720;28;20028;-81
2021/10/03 08:32:11;;;;;;;0.00;0.00;;;27.50;41.40;;;;;;5040835;28;20036;-81
2021/10/03 08:34:37;;;;;;;0.00;0.00;;;27.90;40.80;;;;;;5041346;28;20026;-80
2021/10/03 08:37:03;;;;;;;0.00;0.00;;;28.50;40.20;;;;;;5050278;28;20061;-81
2021/10/03 08:39:29;;;;;;;0.00;0.00;;;28.80;39.40;;;;;;5052751;28;20060;-82
2021/10/03 08:41:54;;;;;;;0.00;0.00;;;29.20;38.90;;;;;;5053484;28;20033;-81
2021/10/03 08:44:20;;;;;;;0.00;0.00;;;29.60;38.40;;;;;;5053214;28;20410;-80
2021/10/03 08:46:47;;;;;;;0.00;0.00;;;30.10;38.00;;;;;;5052713;28;20025;-81
2021/10/03 08:49:13;;;;;;;0.00;0.00;;;30.50;37.40;;;;;;5052915;28;20029;-81
2021/10/03 08:51:39;;;;;;;0.00;0.00;;;31.10;37.00;;;;;;5052812;28;20500;-80
2021/10/03 08:54:04;;;;;;;0.00;0.00;;;31.60;36.40;;;;;;5035540;28;20033;-82
2021/10/03 08:56:30;;;;;;;0.00;0.00;;;32.10;35.90;;;;;;5053168;28;20033;-80
2021/10/03 08:58:57;;;;;;;0.00;0.00;;;32.40;35.50;;;;;;5053109;28;20373;-80
2021/10/03 09:01:23;;;;;;;0.00;0.00;;;32.70;35.00;;;;;;5052560;28;20399;-81
2021/10/03 09:03:50;;;;;;;0.00;0.00;;;32.90;34.30;;;;;;5053103;28;20041;-80
2021/10/03 09:06:16;;;;;;;0.00;0.00;;;33.20;34.00;;;;;;5044897;28;20074;-81
2021/10/03 09:08:45;;;;;;;0.00;0.00;;;33.40;33.60;;;;;;5057263;28;20028;-81
2021/10/03 09:11:16;;;;;;;0.00;0.00;;;33.70;33.00;;;;;;5030204;28;20445;-80
2021/10/03 09:13:48;;;;;;;0.00;0.00;;;34.10;32.60;;;;;;5044789;28;20037;-81
2021/10/03 09:16:24;;;;;;;0.00;0.00;;;34.40;31.90;;;;;;5042989;28;20071;-81
2021/10/03 09:18:54;;;;;;;0.00;0.00;;;34.50;31.50;;;;;;5027758;28;20461;-81
2021/10/03 09:21:29;;;;;;;0.00;0.00;;;34.80;31.00;;;;;;5049363;28;20025;-79
2021/10/03 09:24:08;;;;;;;0.00;0.00;;;35.00;30.60;;;;;;5025384;28;20432;-80
2021/10/03 09:26:35;;;;;;;0.00;0.00;;;35.30;30.30;;;;;;5035719;28;20084;-81
2021/10/03 09:29:21;;;;;;;0.00;0.00;;;35.50;30.10;;;;;;5048275;28;20045;-81
2021/10/03 09:32:12;;;;;;;0.00;0.00;;;35.70;29.80;;;;;;5041428;28;20072;-80
2021/10/03 09:34:39;;;;;;;0.00;0.00;;;36.00;29.70;;;;;;5036595;28;20117;-80
2021/10/03 09:37:26;;;;;;;0.00;0.00;;;36.20;29.60;;;;;;5036719;28;20029;-79
2021/10/03 09:40:15;;;;;;;0.00;0.00;;;36.30;29.30;;;;;;5036763;28;20036;-80
2021/10/03 09:43:05;;;;;;;0.00;0.00;;;36.40;29.20;;;;;;5036523;28;20029;-80
2021/10/03 09:45:32;;;;;;;0.00;0.00;;;36.60;29.00;;;;;;5018567;28;20025;-80
2021/10/03 09:48:02;;;;;;;0.00;0.00;;;36.80;28.70;;;;;;5036496;28;20029;-80
2021/10/03 09:50:29;;;;;;;0.00;0.00;;;36.90;28.70;;;;;;5036318;28;20025;-80
2021/10/03 09:52:55;;;;;;;0.00;0.00;;;37.20;28.80;;;;;;5036257;28;20083;-80
2021/10/03 09:55:25;;;;;;;0.00;0.00;;;37.40;28.40;;;;;;5036202;28;20064;-80
2021/10/03 09:57:54;;;;;;;0.00;0.00;;;37.40;28.30;;;;;;5035937;28;20025;-80
2021/10/03 10:00:23;;;;;;;0.10;0.10;;;37.70;28.30;;;;;;5036050;28;20036;-80
2021/10/03 10:02:49;;;;;;;0.00;0.00;;;37.90;27.90;;;;;;5002625;28;20033;-80
2021/10/03 10:05:17;;;;;;;0.00;0.00;;;38.10;27.80;;;;;;5035864;28;20034;-80
2021/10/03 10:07:44;;;;;;;0.00;0.00;;;38.20;27.70;;;;;;5036063;28;20105;-80
2021/10/03 10:10:10;;;;;;;0.00;0.00;;;38.20;27.80;;;;;;5036187;28;20037;-80
2021/10/03 10:12:57;;;;;;;0.00;0.00;;;38.30;28.20;;;;;;5036106;28;20022;-80
2021/10/03 10:15:24;;;;;;;0.00;0.00;;;38.60;27.40;;;;;;5035342;28;20095;-80
2021/10/03 10:17:51;;;;;;;0.00;0.00;;;38.90;27.40;;;;;;5036497;28;20025;-79
2021/10/03 10:20:20;;;;;;;0.00;0.00;;;39.10;27.40;;;;;;5035689;28;20366;-79
2021/10/03 10:22:57;;;;;;;0.00;0.00;;;39.30;27.20;;;;;;5036131;28;20022;-79
2021/10/03 10:25:51;;;;;;;0.00;0.00;;;39.40;27.10;;;;;;5035387;28;20077;-80
2021/10/03 10:28:29;;;;;;;0.00;0.00;;;39.50;27.10;;;;;;5016581;28;20045;-80
2021/10/03 10:31:15;;;;;;;0.00;0.00;;;39.70;27.30;;;;;;5017873;28;20535;-79
2021/10/03 10:33:50;;;;;;;0.00;0.00;;;39.70;27.10;;;;;;5045173;28;20128;-81
2021/10/03 10:36:56;;;;;;;0.00;0.00;;;39.90;26.90;;;;;;5066161;28;20028;-80
2021/10/03 10:39:23;;;;;;;0.00;0.00;;;40.20;26.80;;;;;;5074132;28;20041;-80
2021/10/03 10:41:55;;;;;;;0.00;0.00;;;40.40;26.90;;;;;;5049413;28;20470;-82
2021/10/03 10:44:24;;;;;;;0.00;0.00;;;40.30;26.80;;;;;;5045700;28;20052;-82
2021/10/03 10:47:00;;;;;;;0.00;0.00;;;40.30;26.70;;;;;;5027823;28;20025;-83
2021/10/03 10:49:27;;;;;;;0.00;0.00;;;40.50;26.60;;;;;;5046289;28;20026;-81
2021/10/03 10:52:17;;;;;;;0.00;0.00;;;40.70;26.40;;;;;;5040824;28;20147;-81
2021/10/03 10:55:05;;;;;;;0.00;0.00;;;40.80;26.40;;;;;;5034811;28;20034;-82
2021/10/03 10:57:51;;;;;;;0.00;0.00;;;40.90;26.40;;;;;;5034696;28;20087;-82
2021/10/03 11:00:24;;;;;;;0.00;0.00;;;41.00;26.40;;;;;;5034847;28;20029;-81
2021/10/03 11:02:54;;;;;;;0.00;0.00;;;41.00;26.20;;;;;;5034711;28;20425;-81
2021/10/03 11:05:39;;;;;;;0.00;0.00;;;40.90;26.10;;;;;;5034641;28;20032;-81
2021/10/03 11:08:05;;;;;;;0.00;0.00;;;41.00;26.20;;;;;;5034486;28;20118;-81
2021/10/03 11:13:45;;;;;;;0.00;0.00;;;40.80;25.90;;;;;;5031219;28;20047;-86
2021/10/03 11:16:35;;;;;;;0.00;0.00;;;40.80;26.00;;;;;;5036510;28;20040;-82
2021/10/03 11:19:21;;;;;;;0.00;0.00;;;40.80;26.00;;;;;;5054127;28;20029;-81
2021/10/03 11:21:51;;;;;;;0.00;0.00;;;41.00;26.10;;;;;;5054124;28;20029;-81
2021/10/03 11:24:22;;;;;;;0.00;0.00;;;41.10;26.00;;;;;;5054373;28;20035;-81
2021/10/03 11:26:56;;;;;;;0.00;0.00;;;41.20;25.90;;;;;;5051233;28;20064;-82
2021/10/03 11:29:33;;;;;;;0.22;0.10;;;41.10;25.90;;;;;;5055303;28;20052;-84
2021/10/03 11:32:07;;;;;;;0.00;0.00;;;41.20;26.00;;;;;;5056116;28;20080;-80
2021/10/03 11:34:39;;;;;;;0.00;0.00;;;41.20;26.00;;;;;;5073940;28;20025;-81
2021/10/03 11:37:10;;;;;;;0.00;0.00;;;41.10;26.10;;;;;;5074254;28;20033;-81
2021/10/03 11:39:48;;;;;;;0.00;0.00;;;41.10;25.90;;;;;;5074211;28;20037;-81
2021/10/03 11:42:27;;;;;;;0.00;0.00;;;41.10;25.90;;;;;;5074309;28;20021;-81
2021/10/03 11:45:00;;;;;;;0.00;0.00;;;41.10;26.00;;;;;;5056587;28;20059;-81
2021/10/03 11:47:26;;;;;;;0.00;0.00;;;41.20;26.10;;;;;;5056218;28;20119;-79
2021/10/03 11:49:52;;;;;;;0.00;0.00;;;41.40;26.30;;;;;;5074106;28;20029;-81
2021/10/03 11:52:35;;;;;;;0.00;0.00;;;41.30;26.20;;;;;;5073113;28;20031;-82
2021/10/03 11:55:05;;;;;;;;;;;41.00;25.90;;;;;;5074634;28;20028;-81
2021/10/03 11:57:35;;;;;;;0.00;0.00;;;40.20;26.10;;;;;;5073828;28;19939;-81
2021/10/03 12:00:14;;;;;;;0.00;0.00;;;39.50;26.20;;;;;;5075336;28;20028;-81
2021/10/03 12:02:51;;;;;;;0.00;0.00;;;39.10;26.50;;;;;;5074864;28;20024;-81
2021/10/03 12:05:26;;;;;;;0.00;0.00;;;38.90;26.70;;;;;;5054639;28;21001;-82
2021/10/03 12:08:11;;;;;;;0.00;0.00;;;39.00;26.90;;;;;;5048328;28;20029;-81
2021/10/03 12:10:49;;;;;;;0.00;0.00;;;39.10;26.90;;;;;;5041304;28;20047;-81
2021/10/03 12:13:29;;;;;;;0.00;0.00;;;39.10;26.20;;;;;;5024525;28;20393;-82
2021/10/03 12:16:02;;;;;;;0.00;0.00;;;38.80;26.10;;;;;;5046764;28;20554;-81
2021/10/03 12:18:30;;;;;;;0.00;0.00;;;38.70;26.10;;;;;;5046825;28;20021;-81
2021/10/03 12:21:12;;;;;;;0.00;0.00;;;38.60;25.80;;;;;;5045891;28;20374;-81
2021/10/03 12:23:41;;;;;;;0.00;0.00;;;38.00;25.80;;;;;;5048791;28;20036;-81
2021/10/03 12:26:29;;;;;;;0.00;0.00;;;37.70;25.90;;;;;;5046915;28;20048;-81
2021/10/03 12:29:07;;;;;;;0.00;0.00;;;37.30;25.80;;;;;;5047946;28;20496;-81
2021/10/03 12:31:55;;;;;;;0.00;0.00;;;37.00;25.90;;;;;;5047570;28;20420;-82
2021/10/03 12:34:21;;;;;;;0.00;0.00;;;36.80;25.80;;;;;;5056430;28;20035;-81
2021/10/03 12:36:50;;;;;;;0.00;0.00;;;36.40;25.80;;;;;;5036346;28;20033;-81
2021/10/03 12:39:17;;;;;;;0.00;0.00;;;36.10;26.20;;;;;;5053913;28;20069;-82
2021/10/03 12:41:43;;;;;;;0.00;0.00;;;36.00;25.90;;;;;;5053786;28;20043;-81
2021/10/03 12:44:12;;;;;;;0.00;0.00;;;36.20;26.10;;;;;;5053339;28;20037;-80
2021/10/03 12:46:38;;;;;;;0.00;0.00;;;36.70;26.20;;;;;;5053601;28;20056;-80
2021/10/03 12:49:04;;;;;;;0.00;0.00;;;37.10;26.20;;;;;;5035847;28;20480;-80
2021/10/03 12:51:29;;;;;;;0.00;0.00;;;37.40;26.00;;;;;;5053385;28;20120;-81
2021/10/03 12:53:55;;;;;;;0.00;0.00;;;37.40;25.90;;;;;;5053074;28;20435;-81
2021/10/03 12:56:21;;;;;;;0.00;0.00;;;37.20;25.70;;;;;;5035503;28;20104;-80
2021/10/03 12:58:46;;;;;;;0.00;0.00;;;36.70;25.70;;;;;;5053430;28;20111;-80
2021/10/03 13:01:14;;;;;;;0.00;0.00;;;36.30;25.70;;;;;;5049801;28;20385;-84
2021/10/03 13:03:40;;;;;;;0.00;0.00;;;35.80;25.80;;;;;;5058939;28;20046;-82